Terminal Aerodrome Forecast
Issued by NWS

Home | Current Version | Previous Version | Graphics & Text | Print | Product List | Glossary On
Versions: 1 2 3 4 5 6 7 8 9 10 11 12 13 14 15 16
316
FTUS43 KUNR 251720
TAFGCC
TAF
KGCC 251720Z 2518/2618 27008KT P6SM SCT015 BKN100
      TEMPO 2519/2522 5SM -SHSN OVC025
     FM260000 26007KT P6SM OVC050
     FM260400 22009KT P6SM SCT100=

USA.gov is the U.S. government's official web portal to all federal, state and local government web resources and services.